Time;durP1;ratioP1;P1;durP2;ratioP2;P2;SDS_P1;SDS_P2;PMS_P1;PMS_P2;Temp;Humidity;BMP_temperature;BMP_pressure;BME280_temperature;BME280_humidity;BME280_pressure;Samples;Min_cycle;Max_cycle;Signal;HPM_P1;HPM_P2
2022/12/14 00:01:34;;;;;;;;;;;20.80;35.50;;;;;;5001627;28;19993;-52
2022/12/14 00:04:00;;;;;;;;;;;20.90;35.50;;;;;;5003823;28;20013;-53
2022/12/14 00:06:26;;;;;;;;;;;20.90;35.50;;;;;;5001267;28;19922;-54
2022/12/14 00:08:52;;;;;;;;;;;20.90;35.30;;;;;;5004577;28;19909;-52
2022/12/14 00:11:21;;;;;;;;;;;20.90;35.50;;;;;;5004732;28;20308;-54
2022/12/14 00:13:49;;;;;;;;;;;20.90;35.60;;;;;;5004531;28;20281;-53
2022/12/14 00:16:15;;;;;;;;;;;20.90;35.20;;;;;;5000805;28;19914;-53
2022/12/14 00:18:41;;;;;;;;;;;20.90;35.40;;;;;;5003299;28;19924;-54
2022/12/14 00:21:07;;;;;;;;;;;21.00;35.30;;;;;;5004097;28;20309;-54
2022/12/14 00:23:33;;;;;;;;;;;20.90;35.40;;;;;;4989821;28;19974;-53
2022/12/14 00:26:05;;;;;;;;;;;20.90;35.40;;;;;;5003895;28;20376;-53
2022/12/14 00:28:30;;;;;;;;;;;20.90;35.40;;;;;;5004286;28;19917;-52
2022/12/14 00:30:56;;;;;;;;;;;20.90;35.30;;;;;;5003068;28;20349;-54
2022/12/14 00:33:22;;;;;;;;;;;20.90;35.20;;;;;;5007002;28;20236;-53
2022/12/14 00:35:47;;;;;;;;;;;20.90;35.30;;;;;;4999363;28;19918;-53
2022/12/14 00:38:13;;;;;;;;;;;20.90;35.40;;;;;;5002932;28;20358;-53
2022/12/14 00:40:38;;;;;;;;;;;20.90;35.40;;;;;;5005512;28;20344;-52
2022/12/14 00:43:04;;;;;;;;;;;20.90;35.20;;;;;;5004458;28;20292;-53
2022/12/14 00:45:29;;;;;;;;;;;20.80;35.40;;;;;;5006227;28;20266;-53
2022/12/14 00:47:55;;;;;;;;;;;20.80;35.40;;;;;;4998699;28;19914;-52
2022/12/14 00:50:20;;;;;;;;;;;20.90;35.10;;;;;;5008092;28;19965;-55
2022/12/14 00:52:46;;;;;;;;;;;20.90;35.30;;;;;;5005128;28;19918;-54
2022/12/14 00:55:11;;;;;;;;;;;20.90;35.20;;;;;;5004158;28;19920;-52
2022/12/14 00:57:37;;;;;;;;;;;20.90;35.20;;;;;;5009227;28;19918;-54
2022/12/14 01:00:02;;;;;;;;;;;20.90;35.10;;;;;;5005454;28;19922;-53
2022/12/14 01:02:28;;;;;;;;;;;20.90;35.20;;;;;;5006624;28;19986;-55
2022/12/14 01:04:53;;;;;;;;;;;20.90;35.20;;;;;;5000985;28;19921;-52
2022/12/14 01:07:19;;;;;;;;;;;20.90;35.50;;;;;;5008141;28;20001;-53
2022/12/14 01:09:44;;;;;;;;;;;20.90;35.10;;;;;;5007077;28;19979;-53
2022/12/14 01:12:09;;;;;;;;;;;20.90;35.10;;;;;;5008548;28;19918;-55
2022/12/14 01:14:35;;;;;;;;;;;20.80;35.10;;;;;;5003503;28;19913;-53
2022/12/14 01:17:00;;;;;;;;;;;20.80;35.30;;;;;;5008876;28;20365;-53
2022/12/14 01:19:26;;;;;;;;;;;20.80;35.40;;;;;;5008767;28;19914;-53
2022/12/14 01:21:52;;;;;;;;;;;20.70;35.40;;;;;;5008290;28;20335;-54
2022/12/14 01:24:17;;;;;;;;;;;20.70;35.30;;;;;;5006184;28;19921;-53
2022/12/14 01:26:44;;;;;;;;;;;20.80;35.20;;;;;;5006663;28;22446;-53
2022/12/14 01:29:10;;;;;;;;;;;20.70;35.20;;;;;;5005911;28;20013;-54
2022/12/14 01:31:35;;;;;;;;;;;20.70;35.40;;;;;;5004386;28;20006;-53
2022/12/14 01:34:01;;;;;;;;;;;20.60;35.50;;;;;;5007703;28;19921;-53
2022/12/14 01:36:28;;;;;;;;;;;20.70;35.50;;;;;;5006941;28;20336;-53
2022/12/14 01:38:54;;;;;;;;;;;20.70;35.40;;;;;;5014153;28;20351;-53
2022/12/14 01:41:23;;;;;;;;;;;20.80;35.30;;;;;;5004420;28;20361;-54
2022/12/14 01:43:50;;;;;;;;;;;20.80;35.10;;;;;;5005864;28;20253;-53
2022/12/14 01:46:27;;;;;;;;;;;20.80;35.10;;;;;;5007013;28;19925;-54
2022/12/14 01:48:53;;;;;;;;;;;20.90;35.00;;;;;;4992439;28;19914;-53
2022/12/14 01:51:18;;;;;;;;;;;20.90;34.90;;;;;;5004038;28;19921;-54
2022/12/14 01:53:44;;;;;;;;;;;20.90;34.80;;;;;;5007208;28;19913;-53
2022/12/14 01:56:09;;;;;;;;;;;20.90;34.80;;;;;;5005963;28;19913;-53
2022/12/14 01:58:34;;;;;;;;;;;20.80;34.80;;;;;;5002522;28;19920;-53
2022/12/14 02:01:00;;;;;;;;;;;20.80;34.80;;;;;;5003943;28;19943;-53
2022/12/14 02:03:26;;;;;;;;;;;20.70;34.80;;;;;;5006798;28;19963;-54
2022/12/14 02:05:59;;;;;;;;;;;20.80;34.80;;;;;;5004341;28;19966;-54
2022/12/14 02:08:25;;;;;;;;;;;20.90;34.90;;;;;;5008953;28;19918;-52
2022/12/14 02:10:50;;;;;;;;;;;20.90;34.80;;;;;;5005170;28;19951;-54
2022/12/14 02:13:31;;;;;;;;;;;20.90;34.70;;;;;;5006879;28;20013;-53
2022/12/14 02:15:57;;;;;;;;;;;20.80;34.80;;;;;;5002534;28;20368;-53
2022/12/14 02:18:23;;;;;;;;;;;20.80;34.80;;;;;;5006926;28;19913;-53
2022/12/14 02:21:02;;;;;;;;;;;20.80;34.80;;;;;;5005801;28;19927;-53
2022/12/14 02:23:36;;;;;;;;;;;20.90;34.70;;;;;;5008080;28;19917;-54
2022/12/14 02:26:18;;;;;;;;;;;20.90;34.60;;;;;;5007223;28;20366;-54
2022/12/14 02:29:01;;;;;;;;;;;20.90;34.60;;;;;;4992159;28;19930;-52
2022/12/14 02:31:31;;;;;;;;;;;20.90;34.60;;;;;;5006428;28;19926;-53
2022/12/14 02:34:01;;;;;;;;;;;20.80;34.60;;;;;;5005627;28;19914;-54
2022/12/14 02:36:34;;;;;;;;;;;20.80;34.70;;;;;;4993730;28;19929;-54
2022/12/14 02:39:19;;;;;;;;;;;20.80;34.80;;;;;;5005654;28;20049;-53
2022/12/14 02:41:50;;;;;;;;;;;20.80;34.60;;;;;;5003351;28;19913;-53
2022/12/14 02:44:19;;;;;;;;;;;20.80;34.60;;;;;;5005528;28;20347;-53
2022/12/14 02:46:50;;;;;;;;;;;20.70;34.80;;;;;;4994216;28;20285;-53
2022/12/14 02:49:22;;;;;;;;;;;20.80;34.80;;;;;;5005633;28;20327;-53
2022/12/14 02:51:51;;;;;;;;;;;20.80;34.70;;;;;;4999334;28;19913;-54
2022/12/14 02:54:28;;;;;;;;;;;20.80;34.70;;;;;;5001923;28;19924;-53
2022/12/14 02:57:06;;;;;;;;;;;20.70;34.60;;;;;;5005612;28;19970;-54
2022/12/14 02:59:31;;;;;;;;;;;20.70;34.80;;;;;;5009656;28;19913;-54
2022/12/14 03:01:57;;;;;;;;;;;20.70;34.60;;;;;;5009780;28;20377;-53
2022/12/14 03:04:22;;;;;;;;;;;20.70;34.80;;;;;;5007951;28;20289;-53
2022/12/14 03:06:55;;;;;;;;;;;20.60;35.00;;;;;;5006248;28;19914;-53
2022/12/14 03:09:20;;;;;;;;;;;20.40;35.20;;;;;;5003069;28;19917;-53
2022/12/14 03:11:54;;;;;;;;;;;20.30;35.50;;;;;;5004938;28;19922;-53
2022/12/14 03:14:20;;;;;;;;;;;20.10;35.50;;;;;;4994139;28;19917;-53
2022/12/14 03:16:46;;;;;;;;;;;20.10;35.50;;;;;;5004167;28;19914;-53
2022/12/14 03:19:14;;;;;;;;;;;20.20;35.40;;;;;;4990338;28;19914;-53
2022/12/14 03:21:41;;;;;;;;;;;20.30;35.20;;;;;;5007136;28;20343;-53
2022/12/14 03:24:08;;;;;;;;;;;20.50;35.10;;;;;;5006597;28;19941;-53
2022/12/14 03:26:35;;;;;;;;;;;20.60;34.70;;;;;;5005420;28;19917;-53
2022/12/14 03:29:24;;;;;;;;;;;20.80;34.20;;;;;;5004527;28;19932;-53
2022/12/14 03:31:53;;;;;;;;;;;20.90;34.20;;;;;;5003288;28;19917;-54
2022/12/14 03:34:20;;;;;;;;;;;21.00;34.20;;;;;;5004822;28;19949;-53
2022/12/14 03:36:49;;;;;;;;;;;21.10;34.10;;;;;;5005284;28;20389;-53
2022/12/14 03:39:19;;;;;;;;;;;21.10;34.00;;;;;;5004740;28;19937;-52
2022/12/14 03:41:54;;;;;;;;;;;21.10;34.00;;;;;;4988914;28;19961;-53
2022/12/14 03:44:31;;;;;;;;;;;21.00;33.90;;;;;;5003086;28;19917;-53
2022/12/14 03:47:00;;;;;;;;;;;21.00;34.10;;;;;;5006633;28;19954;-54
2022/12/14 03:49:25;;;;;;;;;;;21.00;34.00;;;;;;4990746;28;19972;-53
2022/12/14 03:52:00;;;;;;;;;;;21.00;34.10;;;;;;5002595;28;19945;-53
2022/12/14 03:54:31;;;;;;;;;;;21.00;34.10;;;;;;4990632;28;20381;-52
2022/12/14 03:56:59;;;;;;;;;;;21.00;34.00;;;;;;4998331;28;19917;-53
2022/12/14 03:59:43;;;;;;;;;;;21.00;34.00;;;;;;4981234;28;19921;-53
2022/12/14 04:02:14;;;;;;;;;;;20.90;34.20;;;;;;5001141;28;20411;-53
2022/12/14 04:04:50;;;;;;;;;;;20.90;34.10;;;;;;5005433;28;19921;-54
2022/12/14 04:07:36;;;;;;;;;;;20.80;34.10;;;;;;5003974;28;19921;-53
2022/12/14 04:21:16;;;;;;;;;;;20.80;34.10;;;;;;5000707;28;20018;-52
2022/12/14 04:26:29;;;;;;;;;;;20.80;34.10;;;;;;5002210;28;19921;-53
2022/12/14 04:31:40;;;;;;;;;;;20.70;34.10;;;;;;5002648;28;19943;-52
2022/12/14 04:34:06;;;;;;;;;;;20.70;34.00;;;;;;5004886;28;19913;-53
2022/12/14 04:36:34;;;;;;;;;;;20.70;34.10;;;;;;5003772;28;19914;-54
2022/12/14 04:39:01;;;;;;;;;;;20.70;34.10;;;;;;5006123;28;19948;-53
2022/12/14 04:41:28;;;;;;;;;;;20.70;34.10;;;;;;4989054;28;19913;-53
2022/12/14 04:43:53;;;;;;;;;;;20.70;34.00;;;;;;5002725;28;19932;-53
2022/12/14 04:46:20;;;;;;;;;;;20.80;34.10;;;;;;4991819;28;19918;-54
2022/12/14 04:48:47;;;;;;;;;;;20.70;34.10;;;;;;5001293;28;19920;-53
2022/12/14 04:51:18;;;;;;;;;;;20.70;34.00;;;;;;4990343;28;19920;-53
2022/12/14 04:53:44;;;;;;;;;;;20.70;34.00;;;;;;5003142;28;19948;-53
2022/12/14 04:56:11;;;;;;;;;;;20.70;34.10;;;;;;5008097;28;19994;-53
2022/12/14 04:58:37;;;;;;;;;;;20.70;34.00;;;;;;4984068;28;19951;-52
2022/12/14 05:01:14;;;;;;;;;;;20.70;34.00;;;;;;4998653;28;20022;-54
2022/12/14 05:03:44;;;;;;;;;;;20.70;34.10;;;;;;5003410;28;19967;-53
2022/12/14 05:06:20;;;;;;;;;;;20.70;34.00;;;;;;5003876;28;20304;-53
2022/12/14 05:09:25;;;;;;;;;;;20.70;34.10;;;;;;5002248;28;19929;-53
2022/12/14 05:11:59;;;;;;;;;;;20.70;34.00;;;;;;4967381;28;20052;-53
2022/12/14 05:14:32;;;;;;;;;;;20.70;34.00;;;;;;4970548;28;19972;-53
2022/12/14 05:16:57;;;;;;;;;;;20.70;34.00;;;;;;4988260;28;20293;-53
2022/12/14 05:19:25;;;;;;;;;;;20.70;34.00;;;;;;5003479;28;19924;-54
2022/12/14 05:21:51;;;;;;;;;;;20.70;34.00;;;;;;5003277;28;20380;-53
2022/12/14 05:24:16;;;;;;;;;;;20.80;34.00;;;;;;5003537;28;20419;-52
2022/12/14 05:26:42;;;;;;;;;;;20.70;34.00;;;;;;5003644;28;20004;-53
2022/12/14 05:29:08;;;;;;;;;;;20.70;34.00;;;;;;5003658;28;19921;-54
2022/12/14 05:31:33;;;;;;;;;;;20.70;34.00;;;;;;5002687;28;19917;-54
2022/12/14 05:33:59;;;;;;;;;;;20.70;34.00;;;;;;5007732;28;19920;-53
2022/12/14 05:36:24;;;;;;;;;;;20.70;33.90;;;;;;5002027;28;19960;-52
2022/12/14 05:38:50;;;;;;;;;;;20.70;34.00;;;;;;5003582;28;19921;-53
2022/12/14 05:41:15;;;;;;;;;;;20.70;34.60;;;;;;5003423;28;19913;-53
2022/12/14 05:43:40;;;;;;;;;;;20.70;33.90;;;;;;5003651;28;19929;-53
2022/12/14 05:46:06;;;;;;;;;;;20.70;33.80;;;;;;5004137;28;19936;-53
2022/12/14 05:48:32;;;;;;;;;;;20.80;33.70;;;;;;5002349;28;19921;-53
2022/12/14 05:51:04;;;;;;;;;;;20.80;33.60;;;;;;5004222;28;19921;-53
2022/12/14 05:53:30;;;;;;;;;;;20.70;33.80;;;;;;5004824;28;19925;-52
2022/12/14 05:55:56;;;;;;;;;;;20.70;33.70;;;;;;5007001;28;19914;-53
2022/12/14 05:58:21;;;;;;;;;;;20.80;33.70;;;;;;5004397;28;20066;-53
2022/12/14 06:00:46;;;;;;;;;;;20.70;33.70;;;;;;5003064;28;19968;-54
2022/12/14 06:03:12;;;;;;;;;;;20.80;33.60;;;;;;5007482;28;19921;-55
2022/12/14 06:05:37;;;;;;;;;;;20.80;33.50;;;;;;5006861;28;19920;-54
2022/12/14 06:08:03;;;;;;;;;;;20.80;33.50;;;;;;5006401;28;19925;-53
2022/12/14 06:10:28;;;;;;;;;;;20.80;33.50;;;;;;5005133;28;19943;-52
2022/12/14 06:12:54;;;;;;;;;;;20.80;33.50;;;;;;5003961;28;19914;-53
2022/12/14 06:15:19;;;;;;;;;;;20.70;33.60;;;;;;5072970;28;19918;-53
2022/12/14 06:17:45;;;;;;;;;;;20.70;33.70;;;;;;5005917;28;19921;-52
2022/12/14 06:20:10;;;;;;;;;;;20.80;33.60;;;;;;5006609;28;20403;-53
2022/12/14 06:22:36;;;;;;;;;;;20.80;33.50;;;;;;5006119;28;19925;-54
2022/12/14 06:25:02;;;;;;;;;;;20.70;33.60;;;;;;5006949;28;19917;-53
2022/12/14 06:27:27;;;;;;;;;;;20.80;33.40;;;;;;5005732;28;20008;-53
2022/12/14 06:29:52;;;;;;;;;;;20.80;33.50;;;;;;5006754;28;20006;-53
2022/12/14 06:32:18;;;;;;;;;;;20.80;33.40;;;;;;5004301;28;20301;-53
2022/12/14 06:34:44;;;;;;;;;;;20.80;33.50;;;;;;5017637;28;19918;-53
2022/12/14 06:37:09;;;;;;;;;;;20.70;33.50;;;;;;5007494;28;19953;-54
2022/12/14 06:39:34;;;;;;;;;;;20.70;33.50;;;;;;5004503;28;20438;-53
2022/12/14 06:42:00;;;;;;;;;;;20.70;33.50;;;;;;5007262;28;20416;-54
2022/12/14 06:44:25;;;;;;;;;;;20.80;33.40;;;;;;5001990;28;19963;-54
2022/12/14 06:46:51;;;;;;;;;;;20.70;33.40;;;;;;5003749;28;19917;-53
2022/12/14 06:49:16;;;;;;;;;;;20.70;33.40;;;;;;5004976;28;19917;-53
2022/12/14 06:51:42;;;;;;;;;;;20.70;33.40;;;;;;5006599;28;19932;-52
2022/12/14 06:54:08;;;;;;;;;;;20.70;33.40;;;;;;5003063;28;19927;-53
2022/12/14 06:56:34;;;;;;;;;;;20.70;33.50;;;;;;4989888;28;20016;-53
2022/12/14 06:58:59;;;;;;;;;;;20.70;33.40;;;;;;5015828;28;20005;-54
2022/12/14 07:01:25;;;;;;;;;;;20.70;33.40;;;;;;5004143;28;20292;-54
2022/12/14 07:03:54;;;;;;;;;;;20.70;33.50;;;;;;5000959;28;20447;-53
2022/12/14 07:06:20;;;;;;;;;;;20.70;33.40;;;;;;5004102;28;20004;-53
2022/12/14 07:08:46;;;;;;;;;;;20.70;33.40;;;;;;5004707;28;19920;-54
2022/12/14 07:11:12;;;;;;;;;;;20.70;33.40;;;;;;5019280;28;19921;-54
2022/12/14 07:13:37;;;;;;;;;;;20.70;33.50;;;;;;5011578;28;20285;-53
2022/12/14 07:16:04;;;;;;;;;;;20.70;33.30;;;;;;5000200;28;19922;-53
2022/12/14 07:18:29;;;;;;;;;;;20.70;33.40;;;;;;5005673;28;20634;-52
2022/12/14 07:20:56;;;;;;;;;;;20.70;33.40;;;;;;5005395;28;19921;-54
2022/12/14 07:23:21;;;;;;;;;;;20.70;33.60;;;;;;5013149;28;19925;-53
2022/12/14 07:25:47;;;;;;;;;;;20.90;33.20;;;;;;5009186;28;19921;-54
2022/12/14 07:28:12;;;;;;;;;;;21.30;32.70;;;;;;5001766;28;20418;-54
2022/12/14 07:30:37;;;;;;;;;;;21.60;32.10;;;;;;5003095;28;20448;-52
2022/12/14 07:33:03;;;;;;;;;;;21.90;31.60;;;;;;5002850;28;20384;-53
2022/12/14 07:35:28;;;;;;;;;;;22.10;31.10;;;;;;5005046;28;19920;-53
2022/12/14 07:37:54;;;;;;;;;;;22.30;30.90;;;;;;5002645;28;20000;-55
2022/12/14 07:40:20;;;;;;;;;;;22.40;30.80;;;;;;5000803;28;20370;-54
2022/12/14 07:42:49;;;;;;;;;;;22.50;30.70;;;;;;5003483;28;20012;-53
2022/12/14 07:45:14;;;;;;;;;;;22.50;30.50;;;;;;5007759;28;20016;-54
2022/12/14 07:47:40;;;;;;;;;;;22.60;30.50;;;;;;5003370;28;20052;-54
2022/12/14 07:50:05;;;;;;;;;;;22.60;30.30;;;;;;5001371;28;19924;-53
2022/12/14 07:52:31;;;;;;;;;;;22.70;30.40;;;;;;5002104;28;19922;-53
2022/12/14 07:54:56;;;;;;;;;;;22.70;30.30;;;;;;5001042;28;19935;-54
2022/12/14 07:57:22;;;;;;;;;;;22.70;30.20;;;;;;5000160;28;19914;-53
2022/12/14 07:59:48;;;;;;;;;;;22.80;30.20;;;;;;5001886;28;19943;-52
2022/12/14 08:02:13;;;;;;;;;;;22.80;30.20;;;;;;5000039;28;19969;-53
2022/12/14 08:04:38;;;;;;;;;;;22.80;30.10;;;;;;5005362;28;19964;-53
2022/12/14 08:07:04;;;;;;;;;;;22.80;30.30;;;;;;5003572;28;19921;-53
2022/12/14 08:09:29;;;;;;;;;;;22.80;30.30;;;;;;5002972;28;20013;-53
2022/12/14 08:11:55;;;;;;;;;;;22.80;30.40;;;;;;5000880;28;19914;-53
2022/12/14 08:14:20;;;;;;;;;;;22.90;30.40;;;;;;5002790;28;20141;-53
2022/12/14 08:16:46;;;;;;;;;;;22.90;30.40;;;;;;4995751;28;19929;-54
2022/12/14 08:19:12;;;;;;;;;;;23.00;30.50;;;;;;5007595;28;19918;-54
2022/12/14 08:21:37;;;;;;;;;;;23.00;30.60;;;;;;5008980;28;19921;-53
2022/12/14 08:24:03;;;;;;;;;;;23.00;30.40;;;;;;5011112;28;20261;-52
2022/12/14 08:26:29;;;;;;;;;;;23.00;30.60;;;;;;4999835;28;19918;-54
2022/12/14 08:28:54;;;;;;;;;;;23.00;30.60;;;;;;5004112;28;20357;-53
2022/12/14 08:31:20;;;;;;;;;;;23.00;30.40;;;;;;5008477;28;21715;-53
2022/12/14 08:33:46;;;;;;;;;;;23.00;30.40;;;;;;5002121;28;20343;-53
2022/12/14 08:36:12;;;;;;;;;;;23.00;30.60;;;;;;4993550;28;19918;-54
2022/12/14 08:38:38;;;;;;;;;;;23.00;30.40;;;;;;5009067;28;20026;-53
2022/12/14 08:41:04;;;;;;;;;;;23.00;30.50;;;;;;5008308;28;20011;-56
2022/12/14 08:43:30;;;;;;;;;;;23.10;30.40;;;;;;5008521;28;19922;-54
2022/12/14 08:45:55;;;;;;;;;;;23.10;30.40;;;;;;5012727;28;20023;-54
2022/12/14 08:48:20;;;;;;;;;;;23.10;30.40;;;;;;5064871;28;20008;-52
2022/12/14 08:50:46;;;;;;;;;;;23.20;30.50;;;;;;5014685;28;19972;-55
2022/12/14 08:53:11;;;;;;;;;;;23.20;30.60;;;;;;5029262;28;19922;-53
2022/12/14 08:55:37;;;;;;;;;;;23.20;30.80;;;;;;5002347;28;19913;-54
2022/12/14 08:58:02;;;;;;;;;;;23.20;30.80;;;;;;5008000;28;19914;-54
2022/12/14 09:00:28;;;;;;;;;;;23.20;31.00;;;;;;5012331;28;20381;-53
2022/12/14 09:02:53;;;;;;;;;;;23.30;31.20;;;;;;5003238;28;20361;-54
2022/12/14 09:05:19;;;;;;;;;;;23.20;31.00;;;;;;4998694;28;20013;-53
2022/12/14 09:07:44;;;;;;;;;;;23.20;31.10;;;;;;5005106;28;19914;-53
2022/12/14 09:10:10;;;;;;;;;;;23.20;31.20;;;;;;5008796;28;19910;-54
2022/12/14 09:12:36;;;;;;;;;;;23.30;31.30;;;;;;5003225;28;19914;-54
2022/12/14 09:15:01;;;;;;;;;;;23.30;31.30;;;;;;5007874;28;19971;-54
2022/12/14 09:17:26;;;;;;;;;;;23.30;31.20;;;;;;5010595;28;19921;-53
2022/12/14 09:19:52;;;;;;;;;;;23.30;31.20;;;;;;5011363;28;19914;-54
2022/12/14 09:22:17;;;;;;;;;;;23.40;31.30;;;;;;5009238;28;19921;-54
2022/12/14 09:24:43;;;;;;;;;;;23.40;31.20;;;;;;5014729;28;19926;-54
2022/12/14 09:27:08;;;;;;;;;;;23.40;31.20;;;;;;5001461;28;19935;-53
2022/12/14 09:29:34;;;;;;;;;;;23.40;31.10;;;;;;4993178;28;19925;-52
2022/12/14 09:31:59;;;;;;;;;;;23.40;31.10;;;;;;4999542;28;19993;-53
2022/12/14 09:34:25;;;;;;;;;;;23.50;31.20;;;;;;4999121;28;20362;-54
2022/12/14 09:36:51;;;;;;;;;;;23.50;31.20;;;;;;4992761;28;19910;-54
2022/12/14 09:39:17;;;;;;;;;;;23.50;31.20;;;;;;4992780;28;20323;-54
2022/12/14 09:41:55;;;;;;;;;;;23.50;31.20;;;;;;5014976;28;19910;-54
2022/12/14 09:44:28;;;;;;;;;;;23.50;31.20;;;;;;5000707;28;19921;-54
2022/12/14 09:46:56;;;;;;;;;;;23.50;31.20;;;;;;4999592;28;20051;-54
2022/12/14 09:49:24;;;;;;;;;;;23.50;31.20;;;;;;5008698;28;19916;-53
2022/12/14 09:51:49;;;;;;;;;;;23.50;31.10;;;;;;4999876;28;20310;-53
2022/12/14 09:54:15;;;;;;;;;;;23.50;31.00;;;;;;4992387;28;19910;-54
2022/12/14 09:56:40;;;;;;;;;;;23.50;30.80;;;;;;4977111;28;19918;-53
2022/12/14 09:59:08;;;;;;;;;;;23.50;30.70;;;;;;5011545;28;20491;-54
2022/12/14 10:01:33;;;;;;;;;;;23.50;30.50;;;;;;4992056;28;20000;-53
2022/12/14 10:04:05;;;;;;;;;;;23.50;30.40;;;;;;5006944;28;20059;-53
2022/12/14 10:06:35;;;;;;;;;;;23.50;30.40;;;;;;5003354;28;19914;-53
2022/12/14 10:09:07;;;;;;;;;;;23.40;30.40;;;;;;5005943;28;19963;-53
2022/12/14 10:11:43;;;;;;;;;;;23.50;30.30;;;;;;4995090;28;19918;-53
2022/12/14 10:14:27;;;;;;;;;;;23.50;30.20;;;;;;4990747;28;19914;-54
2022/12/14 10:17:01;;;;;;;;;;;23.50;30.20;;;;;;5003383;28;19917;-52
2022/12/14 10:19:40;;;;;;;;;;;23.50;30.10;;;;;;4999275;28;19953;-53
2022/12/14 10:22:16;;;;;;;;;;;23.50;30.10;;;;;;5001929;28;19926;-53
2022/12/14 10:24:42;;;;;;;;;;;23.50;30.10;;;;;;4986954;28;19925;-52
2022/12/14 10:27:08;;;;;;;;;;;23.50;30.00;;;;;;4993059;28;19913;-53
2022/12/14 10:29:39;;;;;;;;;;;23.50;30.00;;;;;;5003950;28;19921;-53
2022/12/14 10:32:20;;;;;;;;;;;23.60;30.00;;;;;;5003181;28;19928;-53
2022/12/14 10:34:46;;;;;;;;;;;23.60;29.90;;;;;;5012815;28;19944;-54
2022/12/14 10:37:19;;;;;;;;;;;23.60;29.90;;;;;;5004238;28;19918;-53
2022/12/14 10:39:47;;;;;;;;;;;23.70;29.70;;;;;;5078065;28;19910;-53
2022/12/14 10:42:22;;;;;;;;;;;23.70;29.80;;;;;;5008212;28;19913;-54
2022/12/14 10:44:52;;;;;;;;;;;23.70;29.80;;;;;;5007109;28;20385;-54
2022/12/14 10:47:33;;;;;;;;;;;23.70;29.80;;;;;;4992321;28;19917;-53
2022/12/14 10:50:17;;;;;;;;;;;23.80;29.90;;;;;;4994978;28;19940;-52
2022/12/14 10:52:43;;;;;;;;;;;23.80;29.90;;;;;;5005583;28;19910;-53
2022/12/14 10:55:28;;;;;;;;;;;23.80;30.00;;;;;;5005247;28;19917;-53
2022/12/14 10:57:54;;;;;;;;;;;23.80;30.00;;;;;;5002786;28;20316;-55
2022/12/14 11:00:20;;;;;;;;;;;23.80;30.00;;;;;;5005036;28;19914;-54
2022/12/14 11:02:46;;;;;;;;;;;23.80;29.90;;;;;;5003535;28;20362;-53
2022/12/14 11:05:22;;;;;;;;;;;23.80;29.90;;;;;;4997700;28;19922;-53
2022/12/14 11:07:48;;;;;;;;;;;23.80;29.90;;;;;;4995680;28;19918;-52
2022/12/14 11:10:14;;;;;;;;;;;23.80;29.90;;;;;;5018942;28;19944;-52
2022/12/14 11:12:39;;;;;;;;;;;23.90;30.00;;;;;;5004485;28;19913;-53
2022/12/14 11:15:05;;;;;;;;;;;23.90;30.00;;;;;;5009877;28;19913;-53
2022/12/14 11:17:31;;;;;;;;;;;23.90;30.00;;;;;;5007240;28;19917;-53
2022/12/14 11:20:17;;;;;;;;;;;23.90;30.00;;;;;;5006066;28;19949;-54
2022/12/14 11:22:46;;;;;;;;;;;23.90;30.00;;;;;;5003022;28;20326;-52
2022/12/14 11:25:24;;;;;;;;;;;23.90;30.10;;;;;;5011789;28;19974;-53
2022/12/14 11:27:49;;;;;;;;;;;23.90;30.00;;;;;;5003307;28;19921;-53
2022/12/14 11:30:15;;;;;;;;;;;23.90;30.00;;;;;;4998393;28;19925;-53
2022/12/14 11:32:40;;;;;;;;;;;24.00;30.00;;;;;;5028502;28;19999;-53
2022/12/14 11:35:10;;;;;;;;;;;23.90;30.10;;;;;;5054896;28;20364;-53
2022/12/14 11:37:36;;;;;;;;;;;24.00;30.10;;;;;;4997945;28;20307;-55
2022/12/14 11:40:02;;;;;;;;;;;24.00;30.10;;;;;;5008534;28;19918;-53
2022/12/14 11:42:28;;;;;;;;;;;23.90;30.10;;;;;;4994077;28;19921;-53
2022/12/14 11:44:54;;;;;;;;;;;24.00;30.20;;;;;;5008992;28;19921;-53
2022/12/14 11:47:20;;;;;;;;;;;24.00;30.30;;;;;;5008491;28;19917;-53
2022/12/14 11:49:46;;;;;;;;;;;24.00;30.40;;;;;;5008339;28;19971;-53
2022/12/14 11:52:12;;;;;;;;;;;24.00;30.40;;;;;;5009442;28;19921;-53
2022/12/14 11:54:38;;;;;;;;;;;24.00;30.40;;;;;;5009549;28;19917;-53
2022/12/14 11:57:04;;;;;;;;;;;24.00;30.70;;;;;;5010244;28;19917;-54
2022/12/14 11:59:45;;;;;;;;;;;24.00;30.60;;;;;;5009225;28;20309;-52
2022/12/14 12:02:25;;;;;;;;;;;24.00;30.60;;;;;;5009152;28;20384;-53
2022/12/14 12:05:10;;;;;;;;;;;24.00;30.60;;;;;;4991598;28;19986;-53
2022/12/14 12:07:37;;;;;;;;;;;24.00;30.60;;;;;;4991497;28;19925;-53
2022/12/14 12:10:04;;;;;;;;;;;24.10;30.60;;;;;;5008931;28;20311;-53
2022/12/14 12:12:30;;;;;;;;;;;24.10;30.70;;;;;;5009032;28;19920;-53
2022/12/14 12:14:55;;;;;;;;;;;24.00;30.70;;;;;;5006859;28;19913;-54
2022/12/14 12:17:32;;;;;;;;;;;24.10;30.80;;;;;;5009010;28;19952;-54
2022/12/14 12:19:57;;;;;;;;;;;24.10;30.70;;;;;;4991216;28;20376;-54
2022/12/14 12:22:24;;;;;;;;;;;24.10;30.70;;;;;;5007899;28;20033;-53
2022/12/14 12:24:57;;;;;;;;;;;24.10;30.70;;;;;;5005187;28;20342;-52
2022/12/14 12:27:22;;;;;;;;;;;24.00;30.70;;;;;;4985500;28;19921;-53
2022/12/14 12:29:55;;;;;;;;;;;24.00;31.00;;;;;;5003193;28;19922;-54
2022/12/14 12:32:22;;;;;;;;;;;24.10;31.00;;;;;;5007811;28;19917;-53
2022/12/14 12:34:50;;;;;;;;;;;24.10;31.10;;;;;;5011358;28;19917;-54
2022/12/14 12:37:28;;;;;;;;;;;24.10;31.00;;;;;;5006149;28;19921;-53
2022/12/14 12:40:05;;;;;;;;;;;24.10;31.00;;;;;;4992231;28;19972;-53
2022/12/14 12:42:34;;;;;;;;;;;24.10;31.10;;;;;;5008542;28;19963;-53
2022/12/14 12:45:03;;;;;;;;;;;24.10;30.90;;;;;;4990635;28;19918;-54
2022/12/14 12:47:31;;;;;;;;;;;24.20;31.00;;;;;;5012234;28;20385;-53
2022/12/14 12:50:00;;;;;;;;;;;24.10;30.90;;;;;;4989856;28;19918;-54
2022/12/14 12:52:27;;;;;;;;;;;24.20;30.90;;;;;;4990774;28;19963;-53
2022/12/14 12:54:58;;;;;;;;;;;24.20;31.10;;;;;;5007208;28;19917;-54
2022/12/14 12:57:24;;;;;;;;;;;24.10;31.20;;;;;;5012145;28;20561;-54
2022/12/14 12:59:51;;;;;;;;;;;24.10;31.10;;;;;;4982307;28;20004;-53
2022/12/14 13:02:33;;;;;;;;;;;24.10;31.20;;;;;;5026073;28;19912;-52
2022/12/14 13:05:03;;;;;;;;;;;24.10;31.10;;;;;;5004486;28;19927;-54
2022/12/14 13:07:30;;;;;;;;;;;24.10;31.20;;;;;;5011067;28;19918;-53
2022/12/14 13:10:00;;;;;;;;;;;24.10;31.20;;;;;;4999379;28;19940;-53
2022/12/14 13:12:30;;;;;;;;;;;24.10;31.20;;;;;;4988395;28;19918;-52
2022/12/14 13:14:55;;;;;;;;;;;24.20;31.30;;;;;;4996216;28;19921;-53
2022/12/14 13:17:26;;;;;;;;;;;24.20;31.30;;;;;;5002018;28;20577;-53
2022/12/14 13:19:51;;;;;;;;;;;24.20;31.30;;;;;;5001238;28;19920;-53
2022/12/14 13:22:18;;;;;;;;;;;24.20;31.30;;;;;;4997999;28;19929;-53
2022/12/14 13:24:44;;;;;;;;;;;24.20;31.30;;;;;;4999947;28;20437;-55
2022/12/14 13:27:12;;;;;;;;;;;24.10;31.90;;;;;;5002337;28;19914;-55
2022/12/14 13:29:56;;;;;;;;;;;24.10;31.30;;;;;;4991731;28;19953;-54
2022/12/14 13:32:25;;;;;;;;;;;24.20;31.40;;;;;;5007638;28;19919;-54
2022/12/14 13:35:00;;;;;;;;;;;24.20;31.30;;;;;;4999198;28;19917;-53
2022/12/14 13:37:29;;;;;;;;;;;24.20;31.30;;;;;;4985670;28;19959;-54
2022/12/14 13:40:14;;;;;;;;;;;24.20;31.30;;;;;;5002395;28;19964;-54
2022/12/14 13:42:50;;;;;;;;;;;24.20;31.30;;;;;;5000780;28;20000;-55
2022/12/14 13:45:16;;;;;;;;;;;24.30;31.40;;;;;;4986272;28;20365;-54
2022/12/14 13:47:52;;;;;;;;;;;24.30;31.90;;;;;;4999293;28;20342;-55
2022/12/14 13:50:24;;;;;;;;;;;24.30;31.40;;;;;;5004673;28;19913;-54
2022/12/14 13:52:49;;;;;;;;;;;24.30;31.40;;;;;;5006968;28;20012;-52
2022/12/14 13:55:21;;;;;;;;;;;24.30;31.50;;;;;;4981998;28;20004;-54
2022/12/14 13:57:47;;;;;;;;;;;24.30;31.60;;;;;;5007712;28;20358;-54
2022/12/14 14:00:48;;;;;;;;;;;24.30;31.70;;;;;;4998401;28;19953;-54
2022/12/14 14:03:32;;;;;;;;;;;24.30;31.90;;;;;;5055301;28;20031;-54
2022/12/14 14:06:06;;;;;;;;;;;24.30;32.00;;;;;;5009229;28;19920;-54
2022/12/14 14:08:32;;;;;;;;;;;24.30;32.20;;;;;;5002178;28;19960;-53
2022/12/14 14:10:58;;;;;;;;;;;24.30;32.10;;;;;;4984676;28;19949;-54
2022/12/14 14:13:27;;;;;;;;;;;24.30;32.20;;;;;;4992912;28;20008;-53
2022/12/14 14:15:55;;;;;;;;;;;24.30;32.20;;;;;;5006902;28;19922;-53
2022/12/14 14:18:22;;;;;;;;;;;24.40;32.40;;;;;;5001490;28;19920;-54
2022/12/14 14:21:14;;;;;;;;;;;24.30;32.40;;;;;;4993682;28;19922;-56
2022/12/14 14:23:55;;;;;;;;;;;24.30;32.40;;;;;;5002321;28;19921;-53
2022/12/14 14:26:22;;;;;;;;;;;24.30;32.60;;;;;;5000531;28;19925;-54
2022/12/14 14:29:11;;;;;;;;;;;24.30;32.50;;;;;;5074539;28;20369;-54
2022/12/14 14:31:46;;;;;;;;;;;24.30;32.50;;;;;;5007093;28;19913;-54
2022/12/14 14:34:15;;;;;;;;;;;24.30;32.50;;;;;;5009330;28;20008;-53
2022/12/14 14:36:42;;;;;;;;;;;24.30;32.40;;;;;;5000626;28;19913;-54
2022/12/14 14:39:24;;;;;;;;;;;24.30;32.40;;;;;;4995142;28;20027;-54
2022/12/14 14:41:50;;;;;;;;;;;24.30;32.50;;;;;;4991456;28;19929;-54